sensor_id;sensor_type;location;lat;lon;timestamp;P1;durP1;ratioP1;P2;durP2;ratioP2
24813;SDS011;12904;50.088;11.414;2024-02-16T00:01:45;13.63;;;8.55;;
24813;SDS011;12904;50.088;11.414;2024-02-16T00:04:10;9.57;;;8.75;;
24813;SDS011;12904;50.088;11.414;2024-02-16T00:06:36;9.70;;;8.80;;
24813;SDS011;12904;50.088;11.414;2024-02-16T00:09:02;12.70;;;9.02;;
24813;SDS011;12904;50.088;11.414;2024-02-16T00:11:27;11.30;;;10.18;;
24813;SDS011;12904;50.088;11.414;2024-02-16T00:13:53;9.48;;;8.55;;
24813;SDS011;12904;50.088;11.414;2024-02-16T00:16:19;10.60;;;9.60;;
24813;SDS011;12904;50.088;11.414;2024-02-16T00:18:46;10.45;;;8.65;;
24813;SDS011;12904;50.088;11.414;2024-02-16T00:21:11;10.52;;;9.30;;
24813;SDS011;12904;50.088;11.414;2024-02-16T00:23:37;9.30;;;8.35;;
24813;SDS011;12904;50.088;11.414;2024-02-16T00:26:02;10.38;;;8.80;;
24813;SDS011;12904;50.088;11.414;2024-02-16T00:28:32;10.63;;;8.77;;
24813;SDS011;12904;50.088;11.414;2024-02-16T00:30:57;10.60;;;8.00;;
24813;SDS011;12904;50.088;11.414;2024-02-16T00:33:23;11.13;;;8.88;;
24813;SDS011;12904;50.088;11.414;2024-02-16T00:35:49;9.30;;;8.50;;
24813;SDS011;12904;50.088;11.414;2024-02-16T00:38:14;9.77;;;7.75;;
24813;SDS011;12904;50.088;11.414;2024-02-16T00:40:40;9.82;;;7.30;;
24813;SDS011;12904;50.088;11.414;2024-02-16T00:43:09;10.10;;;7.68;;
24813;SDS011;12904;50.088;11.414;2024-02-16T00:45:36;7.65;;;6.97;;
24813;SDS011;12904;50.088;11.414;2024-02-16T00:48:03;7.45;;;6.75;;
24813;SDS011;12904;50.088;11.414;2024-02-16T00:50:29;8.07;;;7.28;;
24813;SDS011;12904;50.088;11.414;2024-02-16T00:52:54;7.95;;;7.07;;
24813;SDS011;12904;50.088;11.414;2024-02-16T00:55:20;8.23;;;6.20;;
24813;SDS011;12904;50.088;11.414;2024-02-16T00:57:45;7.40;;;6.70;;
24813;SDS011;12904;50.088;11.414;2024-02-16T01:00:11;8.43;;;7.40;;
24813;SDS011;12904;50.088;11.414;2024-02-16T01:02:37;7.65;;;6.78;;
24813;SDS011;12904;50.088;11.414;2024-02-16T01:05:04;9.18;;;8.43;;
24813;SDS011;12904;50.088;11.414;2024-02-16T01:07:29;9.68;;;7.57;;
24813;SDS011;12904;50.088;11.414;2024-02-16T01:09:57;8.57;;;7.53;;
24813;SDS011;12904;50.088;11.414;2024-02-16T01:12:22;7.47;;;6.78;;
24813;SDS011;12904;50.088;11.414;2024-02-16T01:14:48;7.45;;;6.75;;
24813;SDS011;12904;50.088;11.414;2024-02-16T01:17:14;9.55;;;7.15;;
24813;SDS011;12904;50.088;11.414;2024-02-16T01:19:39;17.35;;;6.63;;
24813;SDS011;12904;50.088;11.414;2024-02-16T01:22:05;7.85;;;6.68;;
24813;SDS011;12904;50.088;11.414;2024-02-16T01:24:31;6.85;;;6.22;;
24813;SDS011;12904;50.088;11.414;2024-02-16T01:26:56;8.27;;;7.03;;
24813;SDS011;12904;50.088;11.414;2024-02-16T01:29:23;7.72;;;6.40;;
24813;SDS011;12904;50.088;11.414;2024-02-16T01:31:48;6.28;;;5.72;;
24813;SDS011;12904;50.088;11.414;2024-02-16T01:34:14;11.45;;;6.03;;
24813;SDS011;12904;50.088;11.414;2024-02-16T01:36:40;10.20;;;6.75;;
24813;SDS011;12904;50.088;11.414;2024-02-16T01:39:06;9.60;;;7.10;;
24813;SDS011;12904;50.088;11.414;2024-02-16T01:41:32;7.43;;;6.68;;
24813;SDS011;12904;50.088;11.414;2024-02-16T01:43:58;7.82;;;6.72;;
24813;SDS011;12904;50.088;11.414;2024-02-16T01:46:24;8.93;;;6.22;;
24813;SDS011;12904;50.088;11.414;2024-02-16T01:48:51;6.82;;;6.03;;
24813;SDS011;12904;50.088;11.414;2024-02-16T01:51:18;7.63;;;6.40;;
24813;SDS011;12904;50.088;11.414;2024-02-16T01:53:44;7.88;;;6.07;;
24813;SDS011;12904;50.088;11.414;2024-02-16T01:56:11;7.00;;;6.30;;
24813;SDS011;12904;50.088;11.414;2024-02-16T01:58:36;6.38;;;5.75;;
24813;SDS011;12904;50.088;11.414;2024-02-16T02:01:02;6.85;;;6.15;;
24813;SDS011;12904;50.088;11.414;2024-02-16T02:03:29;7.10;;;6.32;;
24813;SDS011;12904;50.088;11.414;2024-02-16T02:05:54;7.53;;;5.90;;
24813;SDS011;12904;50.088;11.414;2024-02-16T02:08:21;7.18;;;6.32;;
24813;SDS011;12904;50.088;11.414;2024-02-16T02:10:47;6.90;;;6.20;;
24813;SDS011;12904;50.088;11.414;2024-02-16T02:13:12;6.53;;;5.93;;
24813;SDS011;12904;50.088;11.414;2024-02-16T02:15:40;6.68;;;6.07;;
24813;SDS011;12904;50.088;11.414;2024-02-16T02:18:05;6.85;;;6.10;;
24813;SDS011;12904;50.088;11.414;2024-02-16T02:20:31;6.47;;;5.88;;
24813;SDS011;12904;50.088;11.414;2024-02-16T02:22:56;7.47;;;6.07;;
24813;SDS011;12904;50.088;11.414;2024-02-16T02:25:22;6.03;;;5.43;;
24813;SDS011;12904;50.088;11.414;2024-02-16T02:27:48;7.22;;;6.63;;
24813;SDS011;12904;50.088;11.414;2024-02-16T02:30:14;6.53;;;5.63;;
24813;SDS011;12904;50.088;11.414;2024-02-16T02:32:41;11.52;;;5.18;;
24813;SDS011;12904;50.088;11.414;2024-02-16T02:35:07;5.95;;;5.35;;
24813;SDS011;12904;50.088;11.414;2024-02-16T02:37:33;5.90;;;5.40;;
24813;SDS011;12904;50.088;11.414;2024-02-16T02:39:59;6.22;;;5.63;;
24813;SDS011;12904;50.088;11.414;2024-02-16T02:42:25;7.47;;;5.53;;
24813;SDS011;12904;50.088;11.414;2024-02-16T02:44:50;5.40;;;4.90;;
24813;SDS011;12904;50.088;11.414;2024-02-16T02:47:16;6.78;;;4.88;;
24813;SDS011;12904;50.088;11.414;2024-02-16T02:49:43;5.82;;;4.95;;
24813;SDS011;12904;50.088;11.414;2024-02-16T02:52:09;5.60;;;4.93;;
24813;SDS011;12904;50.088;11.414;2024-02-16T02:54:35;6.55;;;5.75;;
24813;SDS011;12904;50.088;11.414;2024-02-16T02:57:01;7.30;;;4.85;;
24813;SDS011;12904;50.088;11.414;2024-02-16T02:59:27;5.85;;;5.35;;
24813;SDS011;12904;50.088;11.414;2024-02-16T03:01:53;5.70;;;5.20;;
24813;SDS011;12904;50.088;11.414;2024-02-16T03:04:19;5.40;;;4.90;;
24813;SDS011;12904;50.088;11.414;2024-02-16T03:06:45;5.40;;;4.88;;
24813;SDS011;12904;50.088;11.414;2024-02-16T03:09:11;5.00;;;4.50;;
24813;SDS011;12904;50.088;11.414;2024-02-16T03:11:42;7.30;;;4.80;;
24813;SDS011;12904;50.088;11.414;2024-02-16T03:14:07;5.30;;;4.45;;
24813;SDS011;12904;50.088;11.414;2024-02-16T03:16:33;6.38;;;5.65;;
24813;SDS011;12904;50.088;11.414;2024-02-16T03:18:59;5.93;;;5.32;;
24813;SDS011;12904;50.088;11.414;2024-02-16T03:21:25;5.82;;;5.32;;
24813;SDS011;12904;50.088;11.414;2024-02-16T03:23:51;6.95;;;5.05;;
24813;SDS011;12904;50.088;11.414;2024-02-16T03:26:17;5.53;;;5.03;;
24813;SDS011;12904;50.088;11.414;2024-02-16T03:28:44;8.23;;;5.22;;
24813;SDS011;12904;50.088;11.414;2024-02-16T03:31:20;5.43;;;4.70;;
24813;SDS011;12904;50.088;11.414;2024-02-16T03:33:50;6.60;;;4.82;;
24813;SDS011;12904;50.088;11.414;2024-02-16T03:36:16;5.43;;;4.82;;
24813;SDS011;12904;50.088;11.414;2024-02-16T03:38:43;5.72;;;5.15;;
24813;SDS011;12904;50.088;11.414;2024-02-16T03:41:28;5.45;;;4.97;;
24813;SDS011;12904;50.088;11.414;2024-02-16T03:43:53;5.07;;;4.55;;
24813;SDS011;12904;50.088;11.414;2024-02-16T03:46:19;8.65;;;4.95;;
24813;SDS011;12904;50.088;11.414;2024-02-16T03:48:45;6.60;;;4.97;;
24813;SDS011;12904;50.088;11.414;2024-02-16T03:51:11;5.93;;;4.32;;
24813;SDS011;12904;50.088;11.414;2024-02-16T03:53:36;4.60;;;4.20;;
24813;SDS011;12904;50.088;11.414;2024-02-16T03:56:02;4.85;;;4.40;;
24813;SDS011;12904;50.088;11.414;2024-02-16T03:58:28;5.15;;;4.70;;
24813;SDS011;12904;50.088;11.414;2024-02-16T04:00:54;6.15;;;5.65;;
24813;SDS011;12904;50.088;11.414;2024-02-16T04:03:19;7.10;;;4.50;;
24813;SDS011;12904;50.088;11.414;2024-02-16T04:05:45;5.88;;;5.35;;
24813;SDS011;12904;50.088;11.414;2024-02-16T04:08:11;4.60;;;3.72;;
24813;SDS011;12904;50.088;11.414;2024-02-16T04:10:37;4.50;;;4.07;;
24813;SDS011;12904;50.088;11.414;2024-02-16T04:13:02;4.75;;;4.35;;
24813;SDS011;12904;50.088;11.414;2024-02-16T04:15:28;4.28;;;3.88;;
24813;SDS011;12904;50.088;11.414;2024-02-16T04:17:54;5.70;;;4.57;;
24813;SDS011;12904;50.088;11.414;2024-02-16T04:20:20;5.13;;;4.72;;
24813;SDS011;12904;50.088;11.414;2024-02-16T04:22:45;5.47;;;4.95;;
24813;SDS011;12904;50.088;11.414;2024-02-16T04:25:11;5.32;;;4.45;;
24813;SDS011;12904;50.088;11.414;2024-02-16T04:27:37;4.72;;;4.20;;
24813;SDS011;12904;50.088;11.414;2024-02-16T04:30:03;5.30;;;4.80;;
24813;SDS011;12904;50.088;11.414;2024-02-16T04:32:30;5.25;;;4.75;;
24813;SDS011;12904;50.088;11.414;2024-02-16T04:34:56;5.50;;;5.10;;
24813;SDS011;12904;50.088;11.414;2024-02-16T04:37:22;5.43;;;4.68;;
24813;SDS011;12904;50.088;11.414;2024-02-16T04:39:48;4.95;;;4.40;;
24813;SDS011;12904;50.088;11.414;2024-02-16T04:42:14;5.28;;;4.78;;
24813;SDS011;12904;50.088;11.414;2024-02-16T04:44:40;5.35;;;4.88;;
24813;SDS011;12904;50.088;11.414;2024-02-16T04:47:06;5.60;;;5.10;;
24813;SDS011;12904;50.088;11.414;2024-02-16T04:49:31;4.82;;;4.35;;
24813;SDS011;12904;50.088;11.414;2024-02-16T04:51:57;4.72;;;4.22;;
24813;SDS011;12904;50.088;11.414;2024-02-16T04:54:23;5.10;;;4.60;;
24813;SDS011;12904;50.088;11.414;2024-02-16T04:56:49;7.18;;;4.40;;
24813;SDS011;12904;50.088;11.414;2024-02-16T04:59:15;5.18;;;4.68;;
24813;SDS011;12904;50.088;11.414;2024-02-16T05:01:44;7.10;;;4.65;;
24813;SDS011;12904;50.088;11.414;2024-02-16T05:04:10;5.25;;;4.28;;
24813;SDS011;12904;50.088;11.414;2024-02-16T05:06:41;4.65;;;4.05;;
24813;SDS011;12904;50.088;11.414;2024-02-16T05:09:06;4.97;;;4.43;;
24813;SDS011;12904;50.088;11.414;2024-02-16T05:11:32;5.20;;;4.80;;
24813;SDS011;12904;50.088;11.414;2024-02-16T05:13:58;4.75;;;4.20;;
24813;SDS011;12904;50.088;11.414;2024-02-16T05:16:24;4.43;;;4.05;;
24813;SDS011;12904;50.088;11.414;2024-02-16T05:18:50;5.63;;;5.07;;
24813;SDS011;12904;50.088;11.414;2024-02-16T05:21:16;5.40;;;4.85;;
24813;SDS011;12904;50.088;11.414;2024-02-16T05:23:41;6.05;;;4.65;;
24813;SDS011;12904;50.088;11.414;2024-02-16T05:26:07;5.88;;;4.90;;
24813;SDS011;12904;50.088;11.414;2024-02-16T05:28:33;5.55;;;4.93;;
24813;SDS011;12904;50.088;11.414;2024-02-16T05:31:02;5.03;;;4.50;;
24813;SDS011;12904;50.088;11.414;2024-02-16T05:33:37;4.70;;;4.20;;
24813;SDS011;12904;50.088;11.414;2024-02-16T05:36:03;15.80;;;4.35;;
24813;SDS011;12904;50.088;11.414;2024-02-16T05:38:29;5.53;;;4.88;;
24813;SDS011;12904;50.088;11.414;2024-02-16T05:41:00;8.38;;;5.30;;
24813;SDS011;12904;50.088;11.414;2024-02-16T05:43:26;5.65;;;4.25;;
24813;SDS011;12904;50.088;11.414;2024-02-16T05:45:51;5.57;;;5.07;;
24813;SDS011;12904;50.088;11.414;2024-02-16T05:48:17;6.50;;;4.55;;
24813;SDS011;12904;50.088;11.414;2024-02-16T05:50:44;5.75;;;5.18;;
24813;SDS011;12904;50.088;11.414;2024-02-16T05:53:10;5.82;;;5.22;;
24813;SDS011;12904;50.088;11.414;2024-02-16T05:55:36;5.72;;;5.18;;
24813;SDS011;12904;50.088;11.414;2024-02-16T05:58:02;5.47;;;4.97;;
24813;SDS011;12904;50.088;11.414;2024-02-16T06:00:32;6.47;;;5.03;;
24813;SDS011;12904;50.088;11.414;2024-02-16T06:02:59;6.55;;;4.28;;
24813;SDS011;12904;50.088;11.414;2024-02-16T06:05:25;5.82;;;5.32;;
24813;SDS011;12904;50.088;11.414;2024-02-16T06:07:52;5.18;;;4.68;;
24813;SDS011;12904;50.088;11.414;2024-02-16T06:10:17;5.30;;;3.97;;
24813;SDS011;12904;50.088;11.414;2024-02-16T06:12:43;5.90;;;5.28;;
24813;SDS011;12904;50.088;11.414;2024-02-16T06:15:09;5.78;;;5.25;;
24813;SDS011;12904;50.088;11.414;2024-02-16T06:17:34;5.30;;;4.25;;
24813;SDS011;12904;50.088;11.414;2024-02-16T06:20:01;4.80;;;4.35;;
24813;SDS011;12904;50.088;11.414;2024-02-16T06:22:29;4.70;;;4.22;;
24813;SDS011;12904;50.088;11.414;2024-02-16T06:24:56;5.50;;;4.88;;
24813;SDS011;12904;50.088;11.414;2024-02-16T06:27:22;8.90;;;4.63;;
24813;SDS011;12904;50.088;11.414;2024-02-16T06:29:49;6.13;;;4.15;;
24813;SDS011;12904;50.088;11.414;2024-02-16T06:32:15;5.00;;;4.50;;
24813;SDS011;12904;50.088;11.414;2024-02-16T06:34:42;5.10;;;3.92;;
24813;SDS011;12904;50.088;11.414;2024-02-16T06:37:08;5.35;;;4.85;;
24813;SDS011;12904;50.088;11.414;2024-02-16T06:39:33;4.90;;;4.32;;
24813;SDS011;12904;50.088;11.414;2024-02-16T06:41:59;4.47;;;4.00;;
24813;SDS011;12904;50.088;11.414;2024-02-16T06:44:25;5.07;;;4.63;;
24813;SDS011;12904;50.088;11.414;2024-02-16T06:46:51;8.50;;;4.90;;
24813;SDS011;12904;50.088;11.414;2024-02-16T06:49:16;5.65;;;4.03;;
24813;SDS011;12904;50.088;11.414;2024-02-16T06:51:42;5.85;;;4.57;;
24813;SDS011;12904;50.088;11.414;2024-02-16T06:54:09;4.93;;;4.15;;
24813;SDS011;12904;50.088;11.414;2024-02-16T06:56:36;5.13;;;4.40;;
24813;SDS011;12904;50.088;11.414;2024-02-16T06:59:01;5.53;;;4.55;;
24813;SDS011;12904;50.088;11.414;2024-02-16T07:01:27;4.03;;;3.63;;
24813;SDS011;12904;50.088;11.414;2024-02-16T07:03:54;8.68;;;3.58;;
24813;SDS011;12904;50.088;11.414;2024-02-16T07:06:19;4.30;;;3.88;;
24813;SDS011;12904;50.088;11.414;2024-02-16T07:08:45;3.85;;;3.55;;
24813;SDS011;12904;50.088;11.414;2024-02-16T07:11:11;3.50;;;3.20;;
24813;SDS011;12904;50.088;11.414;2024-02-16T07:13:38;4.18;;;3.40;;
24813;SDS011;12904;50.088;11.414;2024-02-16T07:16:04;4.40;;;3.88;;
24813;SDS011;12904;50.088;11.414;2024-02-16T07:18:31;5.13;;;3.78;;
24813;SDS011;12904;50.088;11.414;2024-02-16T07:20:58;4.00;;;3.60;;
24813;SDS011;12904;50.088;11.414;2024-02-16T07:23:24;3.53;;;3.20;;
24813;SDS011;12904;50.088;11.414;2024-02-16T07:25:50;3.40;;;2.95;;
24813;SDS011;12904;50.088;11.414;2024-02-16T07:28:16;4.13;;;3.80;;
24813;SDS011;12904;50.088;11.414;2024-02-16T07:30:41;6.28;;;3.00;;
24813;SDS011;12904;50.088;11.414;2024-02-16T07:33:07;3.60;;;3.05;;
24813;SDS011;12904;50.088;11.414;2024-02-16T07:35:34;4.47;;;3.35;;
24813;SDS011;12904;50.088;11.414;2024-02-16T07:38:00;2.75;;;2.47;;
24813;SDS011;12904;50.088;11.414;2024-02-16T07:40:27;3.95;;;1.90;;
24813;SDS011;12904;50.088;11.414;2024-02-16T07:42:53;2.08;;;1.50;;
24813;SDS011;12904;50.088;11.414;2024-02-16T07:45:18;2.78;;;1.98;;
24813;SDS011;12904;50.088;11.414;2024-02-16T07:47:45;1.83;;;1.50;;
24813;SDS011;12904;50.088;11.414;2024-02-16T07:50:11;3.72;;;1.60;;
24813;SDS011;12904;50.088;11.414;2024-02-16T07:52:37;2.33;;;1.75;;
24813;SDS011;12904;50.088;11.414;2024-02-16T07:55:04;2.55;;;2.03;;
24813;SDS011;12904;50.088;11.414;2024-02-16T07:57:33;2.45;;;1.50;;
24813;SDS011;12904;50.088;11.414;2024-02-16T07:59:59;8.32;;;3.35;;
24813;SDS011;12904;50.088;11.414;2024-02-16T08:02:24;2.40;;;1.48;;
24813;SDS011;12904;50.088;11.414;2024-02-16T08:04:50;2.22;;;1.85;;
24813;SDS011;12904;50.088;11.414;2024-02-16T08:07:16;2.15;;;1.85;;
24813;SDS011;12904;50.088;11.414;2024-02-16T08:09:45;2.92;;;2.10;;
24813;SDS011;12904;50.088;11.414;2024-02-16T08:12:15;2.75;;;1.98;;
24813;SDS011;12904;50.088;11.414;2024-02-16T08:14:41;2.30;;;1.88;;
24813;SDS011;12904;50.088;11.414;2024-02-16T08:17:07;2.10;;;1.70;;
24813;SDS011;12904;50.088;11.414;2024-02-16T08:19:34;3.58;;;2.08;;
24813;SDS011;12904;50.088;11.414;2024-02-16T08:22:01;4.50;;;2.10;;
24813;SDS011;12904;50.088;11.414;2024-02-16T08:24:29;3.40;;;2.08;;
24813;SDS011;12904;50.088;11.414;2024-02-16T08:26:58;1.83;;;1.70;;
24813;SDS011;12904;50.088;11.414;2024-02-16T08:29:24;1.75;;;1.55;;
24813;SDS011;12904;50.088;11.414;2024-02-16T08:31:53;2.00;;;1.60;;
24813;SDS011;12904;50.088;11.414;2024-02-16T08:34:20;4.70;;;2.75;;
24813;SDS011;12904;50.088;11.414;2024-02-16T08:36:47;2.58;;;1.63;;
24813;SDS011;12904;50.088;11.414;2024-02-16T08:39:13;2.55;;;2.13;;
24813;SDS011;12904;50.088;11.414;2024-02-16T08:41:39;2.90;;;1.63;;
24813;SDS011;12904;50.088;11.414;2024-02-16T08:44:08;1.75;;;1.65;;
24813;SDS011;12904;50.088;11.414;2024-02-16T08:46:38;3.05;;;2.00;;
24813;SDS011;12904;50.088;11.414;2024-02-16T08:49:04;2.75;;;1.45;;
24813;SDS011;12904;50.088;11.414;2024-02-16T08:51:34;2.53;;;1.98;;
24813;SDS011;12904;50.088;11.414;2024-02-16T08:54:00;6.88;;;1.85;;
24813;SDS011;12904;50.088;11.414;2024-02-16T08:56:29;1.60;;;1.42;;
24813;SDS011;12904;50.088;11.414;2024-02-16T08:58:55;2.20;;;2.00;;
24813;SDS011;12904;50.088;11.414;2024-02-16T09:01:34;2.58;;;1.95;;
24813;SDS011;12904;50.088;11.414;2024-02-16T09:04:01;2.20;;;1.60;;
24813;SDS011;12904;50.088;11.414;2024-02-16T09:06:27;2.42;;;1.70;;
24813;SDS011;12904;50.088;11.414;2024-02-16T09:08:53;2.40;;;1.50;;
24813;SDS011;12904;50.088;11.414;2024-02-16T09:11:19;2.75;;;1.55;;
24813;SDS011;12904;50.088;11.414;2024-02-16T09:13:45;5.22;;;1.77;;
24813;SDS011;12904;50.088;11.414;2024-02-16T09:16:11;3.33;;;2.03;;
24813;SDS011;12904;50.088;11.414;2024-02-16T09:18:36;2.67;;;1.83;;
24813;SDS011;12904;50.088;11.414;2024-02-16T09:21:03;2.58;;;2.28;;
24813;SDS011;12904;50.088;11.414;2024-02-16T09:23:29;2.78;;;1.75;;
24813;SDS011;12904;50.088;11.414;2024-02-16T09:25:55;3.20;;;1.80;;
24813;SDS011;12904;50.088;11.414;2024-02-16T09:28:20;2.72;;;1.88;;
24813;SDS011;12904;50.088;11.414;2024-02-16T09:30:46;2.40;;;1.63;;
24813;SDS011;12904;50.088;11.414;2024-02-16T09:33:12;2.28;;;1.70;;
24813;SDS011;12904;50.088;11.414;2024-02-16T09:35:41;2.83;;;1.75;;
24813;SDS011;12904;50.088;11.414;2024-02-16T09:38:06;3.22;;;2.72;;
24813;SDS011;12904;50.088;11.414;2024-02-16T09:40:35;3.97;;;1.55;;
24813;SDS011;12904;50.088;11.414;2024-02-16T09:43:01;2.22;;;1.40;;
24813;SDS011;12904;50.088;11.414;2024-02-16T09:45:27;2.78;;;1.80;;
24813;SDS011;12904;50.088;11.414;2024-02-16T09:47:55;2.20;;;1.90;;
24813;SDS011;12904;50.088;11.414;2024-02-16T09:50:22;2.33;;;1.88;;
24813;SDS011;12904;50.088;11.414;2024-02-16T09:52:49;3.58;;;2.15;;
24813;SDS011;12904;50.088;11.414;2024-02-16T09:55:15;2.28;;;1.48;;
24813;SDS011;12904;50.088;11.414;2024-02-16T09:57:42;2.88;;;1.58;;
24813;SDS011;12904;50.088;11.414;2024-02-16T10:00:09;2.53;;;1.65;;
24813;SDS011;12904;50.088;11.414;2024-02-16T10:02:47;2.85;;;1.67;;
24813;SDS011;12904;50.088;11.414;2024-02-16T10:05:14;3.33;;;2.42;;
24813;SDS011;12904;50.088;11.414;2024-02-16T10:07:43;3.30;;;2.83;;
24813;SDS011;12904;50.088;11.414;2024-02-16T10:13:01;3.78;;;3.40;;
24813;SDS011;12904;50.088;11.414;2024-02-16T10:15:33;3.47;;;3.05;;
24813;SDS011;12904;50.088;11.414;2024-02-16T10:20:29;4.43;;;4.03;;
24813;SDS011;12904;50.088;11.414;2024-02-16T10:23:28;4.13;;;3.40;;
24813;SDS011;12904;50.088;11.414;2024-02-16T10:25:47;3.80;;;3.47;;
24813;SDS011;12904;50.088;11.414;2024-02-16T10:28:13;3.70;;;3.25;;
24813;SDS011;12904;50.088;11.414;2024-02-16T10:30:40;4.60;;;3.83;;
24813;SDS011;12904;50.088;11.414;2024-02-16T10:33:09;3.90;;;3.50;;
24813;SDS011;12904;50.088;11.414;2024-02-16T10:35:37;3.95;;;3.50;;
24813;SDS011;12904;50.088;11.414;2024-02-16T10:38:04;4.53;;;3.70;;
24813;SDS011;12904;50.088;11.414;2024-02-16T10:40:38;4.10;;;3.70;;
24813;SDS011;12904;50.088;11.414;2024-02-16T10:43:05;6.03;;;3.90;;
24813;SDS011;12904;50.088;11.414;2024-02-16T10:45:36;4.18;;;3.45;;
24813;SDS011;12904;50.088;11.414;2024-02-16T10:48:02;5.63;;;4.10;;
24813;SDS011;12904;50.088;11.414;2024-02-16T10:50:29;5.88;;;3.63;;
24813;SDS011;12904;50.088;11.414;2024-02-16T10:52:57;3.78;;;3.22;;
24813;SDS011;12904;50.088;11.414;2024-02-16T10:55:29;4.38;;;3.97;;
24813;SDS011;12904;50.088;11.414;2024-02-16T10:57:56;4.38;;;3.83;;
24813;SDS011;12904;50.088;11.414;2024-02-16T11:00:22;4.70;;;3.67;;
24813;SDS011;12904;50.088;11.414;2024-02-16T11:02:57;6.80;;;3.83;;
24813;SDS011;12904;50.088;11.414;2024-02-16T11:05:40;3.92;;;3.35;;
24813;SDS011;12904;50.088;11.414;2024-02-16T11:08:14;4.22;;;3.42;;
24813;SDS011;12904;50.088;11.414;2024-02-16T11:10:40;4.47;;;3.97;;
24813;SDS011;12904;50.088;11.414;2024-02-16T11:13:06;4.07;;;3.63;;
24813;SDS011;12904;50.088;11.414;2024-02-16T11:15:34;5.25;;;3.47;;
24813;SDS011;12904;50.088;11.414;2024-02-16T11:18:02;4.50;;;3.55;;
24813;SDS011;12904;50.088;11.414;2024-02-16T11:20:29;4.15;;;3.75;;
24813;SDS011;12904;50.088;11.414;2024-02-16T11:23:06;4.20;;;3.33;;
24813;SDS011;12904;50.088;11.414;2024-02-16T11:25:34;5.22;;;3.70;;
24813;SDS011;12904;50.088;11.414;2024-02-16T11:28:01;3.95;;;3.45;;
24813;SDS011;12904;50.088;11.414;2024-02-16T11:30:33;3.58;;;3.03;;
24813;SDS011;12904;50.088;11.414;2024-02-16T11:33:02;4.75;;;3.50;;
24813;SDS011;12904;50.088;11.414;2024-02-16T11:35:28;4.63;;;3.60;;
24813;SDS011;12904;50.088;11.414;2024-02-16T11:37:55;4.25;;;3.00;;
24813;SDS011;12904;50.088;11.414;2024-02-16T11:40:21;3.78;;;3.42;;
24813;SDS011;12904;50.088;11.414;2024-02-16T11:42:47;3.78;;;3.33;;
24813;SDS011;12904;50.088;11.414;2024-02-16T11:45:12;5.93;;;3.42;;
24813;SDS011;12904;50.088;11.414;2024-02-16T11:47:38;3.13;;;2.83;;
24813;SDS011;12904;50.088;11.414;2024-02-16T11:52:31;3.90;;;3.53;;
24813;SDS011;12904;50.088;11.414;2024-02-16T11:54:57;3.50;;;3.20;;
24813;SDS011;12904;50.088;11.414;2024-02-16T11:57:28;3.90;;;3.45;;
24813;SDS011;12904;50.088;11.414;2024-02-16T11:59:54;3.45;;;3.10;;
24813;SDS011;12904;50.088;11.414;2024-02-16T12:02:20;6.30;;;3.33;;
24813;SDS011;12904;50.088;11.414;2024-02-16T12:04:47;3.28;;;2.55;;
24813;SDS011;12904;50.088;11.414;2024-02-16T12:07:13;3.60;;;3.13;;
24813;SDS011;12904;50.088;11.414;2024-02-16T12:09:39;5.18;;;3.78;;
24813;SDS011;12904;50.088;11.414;2024-02-16T12:12:05;3.50;;;3.20;;
24813;SDS011;12904;50.088;11.414;2024-02-16T12:14:31;3.97;;;3.17;;
24813;SDS011;12904;50.088;11.414;2024-02-16T12:16:58;3.72;;;3.13;;
24813;SDS011;12904;50.088;11.414;2024-02-16T12:19:24;3.13;;;2.83;;
24813;SDS011;12904;50.088;11.414;2024-02-16T12:21:57;3.17;;;2.88;;
24813;SDS011;12904;50.088;11.414;2024-02-16T12:24:22;2.83;;;2.63;;
24813;SDS011;12904;50.088;11.414;2024-02-16T12:26:48;4.35;;;3.08;;
24813;SDS011;12904;50.088;11.414;2024-02-16T12:29:15;3.88;;;3.20;;
24813;SDS011;12904;50.088;11.414;2024-02-16T12:31:42;5.38;;;2.60;;
24813;SDS011;12904;50.088;11.414;2024-02-16T12:34:09;3.08;;;2.78;;
24813;SDS011;12904;50.088;11.414;2024-02-16T12:36:35;3.40;;;3.03;;
24813;SDS011;12904;50.088;11.414;2024-02-16T12:39:01;3.63;;;2.88;;
24813;SDS011;12904;50.088;11.414;2024-02-16T12:41:29;4.30;;;2.67;;
24813;SDS011;12904;50.088;11.414;2024-02-16T12:43:55;5.43;;;3.45;;
24813;SDS011;12904;50.088;11.414;2024-02-16T12:46:21;9.15;;;3.15;;
24813;SDS011;12904;50.088;11.414;2024-02-16T12:48:46;3.25;;;2.75;;
24813;SDS011;12904;50.088;11.414;2024-02-16T12:51:12;3.95;;;2.80;;
24813;SDS011;12904;50.088;11.414;2024-02-16T12:53:39;3.75;;;2.78;;
24813;SDS011;12904;50.088;11.414;2024-02-16T12:56:07;4.55;;;2.70;;
24813;SDS011;12904;50.088;11.414;2024-02-16T12:58:34;3.08;;;2.33;;
24813;SDS011;12904;50.088;11.414;2024-02-16T13:01:01;4.88;;;2.92;;
24813;SDS011;12904;50.088;11.414;2024-02-16T13:03:27;3.00;;;2.70;;
24813;SDS011;12904;50.088;11.414;2024-02-16T13:05:53;2.60;;;2.40;;
24813;SDS011;12904;50.088;11.414;2024-02-16T13:31:37;4.10;;;2.67;;
24813;SDS011;12904;50.088;11.414;2024-02-16T13:34:05;3.38;;;2.65;;
24813;SDS011;12904;50.088;11.414;2024-02-16T13:36:30;3.45;;;3.08;;
24813;SDS011;12904;50.088;11.414;2024-02-16T13:41:31;5.47;;;2.35;;
24813;SDS011;12904;50.088;11.414;2024-02-16T13:43:57;2.97;;;2.38;;
24813;SDS011;12904;50.088;11.414;2024-02-16T13:46:23;4.13;;;2.63;;
24813;SDS011;12904;50.088;11.414;2024-02-16T13:48:49;2.80;;;2.55;;
24813;SDS011;12904;50.088;11.414;2024-02-16T13:51:14;3.47;;;2.60;;
24813;SDS011;12904;50.088;11.414;2024-02-16T13:53:40;3.95;;;2.95;;
24813;SDS011;12904;50.088;11.414;2024-02-16T13:56:06;3.25;;;2.90;;
24813;SDS011;12904;50.088;11.414;2024-02-16T13:58:31;3.45;;;2.42;;
24813;SDS011;12904;50.088;11.414;2024-02-16T14:00:59;5.57;;;3.10;;
24813;SDS011;12904;50.088;11.414;2024-02-16T14:03:25;3.33;;;2.40;;
24813;SDS011;12904;50.088;11.414;2024-02-16T14:05:51;4.22;;;3.03;;
24813;SDS011;12904;50.088;11.414;2024-02-16T14:08:17;2.60;;;2.40;;
24813;SDS011;12904;50.088;11.414;2024-02-16T14:10:43;3.20;;;2.83;;
24813;SDS011;12904;50.088;11.414;2024-02-16T14:13:08;3.00;;;2.28;;
24813;SDS011;12904;50.088;11.414;2024-02-16T14:15:34;3.40;;;2.70;;
24813;SDS011;12904;50.088;11.414;2024-02-16T14:18:00;4.05;;;2.65;;
24813;SDS011;12904;50.088;11.414;2024-02-16T14:20:26;3.55;;;2.38;;
24813;SDS011;12904;50.088;11.414;2024-02-16T14:22:51;5.70;;;2.60;;
24813;SDS011;12904;50.088;11.414;2024-02-16T14:25:17;2.90;;;2.58;;
24813;SDS011;12904;50.088;11.414;2024-02-16T14:32:56;2.53;;;2.33;;
24813;SDS011;12904;50.088;11.414;2024-02-16T14:35:22;3.33;;;2.35;;
24813;SDS011;12904;50.088;11.414;2024-02-16T14:37:48;3.05;;;2.75;;
24813;SDS011;12904;50.088;11.414;2024-02-16T14:40:14;3.10;;;2.80;;
24813;SDS011;12904;50.088;11.414;2024-02-16T14:42:40;3.55;;;2.60;;
24813;SDS011;12904;50.088;11.414;2024-02-16T14:45:07;2.75;;;2.53;;
24813;SDS011;12904;50.088;11.414;2024-02-16T14:47:35;3.58;;;2.63;;
24813;SDS011;12904;50.088;11.414;2024-02-16T14:50:02;3.08;;;2.33;;
24813;SDS011;12904;50.088;11.414;2024-02-16T14:52:29;2.85;;;2.60;;
24813;SDS011;12904;50.088;11.414;2024-02-16T14:54:54;2.55;;;2.35;;
24813;SDS011;12904;50.088;11.414;2024-02-16T14:57:21;3.88;;;2.30;;
24813;SDS011;12904;50.088;11.414;2024-02-16T14:59:49;3.40;;;2.50;;
24813;SDS011;12904;50.088;11.414;2024-02-16T15:02:20;3.08;;;2.45;;
24813;SDS011;12904;50.088;11.414;2024-02-16T15:04:47;4.22;;;2.42;;
24813;SDS011;12904;50.088;11.414;2024-02-16T15:07:13;4.05;;;3.00;;
24813;SDS011;12904;50.088;11.414;2024-02-16T15:09:38;3.08;;;2.78;;